Blue Galaxy — SWDA — position and weather

sailwx.info

Track history (hours):
 
Tides and Currents Weather Stations Pressure Air Temp Water Temp Dewpoint Dewpoint Depression Visibility Wind Speed Wind Dir Waves Ship Positions

Blue Galaxy

Last reported at 2016-Sep-30 17:34 UTC. Time now 2016-Oct-01 01:32 UTC.
Position N 37°57' E 023°38'.

Length 192 m; draft 6.7 m.

Type: Passenger vessel. MMSI: 239672000.

Date/timePositionNaut miles runAvg speedWind from/ knotsBaromVisibWave heightAir tempDewpointWater temp
2016-Sep-30 17:34N 37°57' E 023°38'0 0.0
2016-Sep-30 16:34N 37°57' E 023°38'0 0.0
2016-Sep-30 14:34N 37°57' E 023°38'0 0.0
2016-Sep-30 13:34N 37°57' E 023°38'0 0.0
2016-Sep-30 10:34N 37°57' E 023°38'0 0.0
2016-Sep-30 08:34N 37°57' E 023°38'0 0.0
2016-Sep-30 06:34N 37°57' E 023°38'0 0.0
2016-Sep-30 03:34N 37°57' E 023°38'0 0.0
2016-Sep-30 02:34N 37°57' E 023°38'18 0.6
2016-Sep-28 19:33N 37°39' E 023°43'18 6.1
2016-Sep-28 16:33N 37°57' E 023°38'0 0.0
2016-Sep-28 15:33N 37°57' E 023°38'0 0.0
2016-Sep-28 12:34N 37°57' E 023°38'0 0.0
2016-Sep-28 08:34N 37°57' E 023°38'0 0.0
2016-Sep-28 03:33N 37°57' E 023°38'0 0.0
2016-Sep-28 02:33N 37°57' E 023°38'1211.8
2016-Sep-28 01:33N 37°45' E 023°42'24 0.8
2016-Sep-26 20:28N 37°22' E 023°48'1819.8
2016-Sep-26 19:33N 37°39' E 023°42'18 4.5
2016-Sep-26 15:33N 37°57' E 023°38'0 0.0
2016-Sep-26 13:33N 37°57' E 023°38'0 0.0
2016-Sep-26 11:33N 37°57' E 023°38'0 0.0
2016-Sep-26 08:33N 37°57' E 023°38'0 0.0
2016-Sep-26 02:33N 37°57' E 023°38'8 8.5
2016-Sep-26 01:34N 37°48' E 023°40'2020.2
2016-Sep-26 00:33N 37°29' E 023°48'5 0.2
2016-Sep-24 19:33N 37°33' E 023°44'2020.4
2016-Sep-24 18:34N 37°52' E 023°37'5 5.1
2016-Sep-24 17:33N 37°57' E 023°38'0 0.0
2016-Sep-24 16:33N 37°57' E 023°38'0 0.0
2016-Sep-24 14:33N 37°57' E 023°38'2211.2
2016-Sep-24 12:33N 37°35' E 023°46'  
2016-Sep-21 19:33N 37°55' E 023°37'3 0.8
2016-Sep-21 16:34N 37°57' E 023°38'0 0.0
2016-Sep-21 09:33N 37°57' E 023°38'0 0.0
2016-Sep-21 08:33N 37°57' E 023°38'0 0.0
2016-Sep-21 05:33N 37°57' E 023°38'0 0.0
2016-Sep-21 03:34N 37°57' E 023°38'0 0.5
2016-Sep-21 02:34N 37°56' E 023°38'  
Track history (hours):
 
Tides and Currents Weather Stations Pressure Air Temp Water Temp Dewpoint Dewpoint Depression Visibility Wind Speed Wind Dir Waves Ship Positions

Blue Galaxy

Last reported at 2016-Sep-30 17:34 UTC. Time now 2016-Oct-01 01:32 UTC.
Position N 37°57' E 023°38'.

Length 192 m; draft 6.7 m.

Type: Passenger vessel. MMSI: 239672000.

Date/timePositionNaut miles runAvg speedWind from/ knotsBaromVisibWave heightAir tempDewpointWater temp
2016-Sep-30 17:34N 37°57' E 023°38'0 0.0
2016-Sep-30 16:34N 37°57' E 023°38'0 0.0
2016-Sep-30 14:34N 37°57' E 023°38'0 0.0
2016-Sep-30 13:34N 37°57' E 023°38'0 0.0
2016-Sep-30 10:34N 37°57' E 023°38'0 0.0
2016-Sep-30 08:34N 37°57' E 023°38'0 0.0
2016-Sep-30 06:34N 37°57' E 023°38'0 0.0
2016-Sep-30 03:34N 37°57' E 023°38'0 0.0
2016-Sep-30 02:34N 37°57' E 023°38'18 0.6
2016-Sep-28 19:33N 37°39' E 023°43'18 6.1
2016-Sep-28 16:33N 37°57' E 023°38'0 0.0
2016-Sep-28 15:33N 37°57' E 023°38'0 0.0
2016-Sep-28 12:34N 37°57' E 023°38'0 0.0
2016-Sep-28 08:34N 37°57' E 023°38'0 0.0
2016-Sep-28 03:33N 37°57' E 023°38'0 0.0
2016-Sep-28 02:33N 37°57' E 023°38'1211.8
2016-Sep-28 01:33N 37°45' E 023°42'24 0.8
2016-Sep-26 20:28N 37°22' E 023°48'1819.8
2016-Sep-26 19:33N 37°39' E 023°42'18 4.5
2016-Sep-26 15:33N 37°57' E 023°38'0 0.0
2016-Sep-26 13:33N 37°57' E 023°38'0 0.0
2016-Sep-26 11:33N 37°57' E 023°38'0 0.0
2016-Sep-26 08:33N 37°57' E 023°38'0 0.0
2016-Sep-26 02:33N 37°57' E 023°38'8 8.5
2016-Sep-26 01:34N 37°48' E 023°40'2020.2
2016-Sep-26 00:33N 37°29' E 023°48'5 0.2
2016-Sep-24 19:33N 37°33' E 023°44'2020.4
2016-Sep-24 18:34N 37°52' E 023°37'5 5.1
2016-Sep-24 17:33N 37°57' E 023°38'0 0.0
2016-Sep-24 16:33N 37°57' E 023°38'0 0.0
2016-Sep-24 14:33N 37°57' E 023°38'2211.2
2016-Sep-24 12:33N 37°35' E 023°46'  
2016-Sep-21 19:33N 37°55' E 023°37'3 0.8
2016-Sep-21 16:34N 37°57' E 023°38'0 0.0
2016-Sep-21 09:33N 37°57' E 023°38'0 0.0
2016-Sep-21 08:33N 37°57' E 023°38'0 0.0
2016-Sep-21 05:33N 37°57' E 023°38'0 0.0
2016-Sep-21 03:34N 37°57' E 023°38'0 0.5
2016-Sep-21 02:34N 37°56' E 023°38'  

Dump ship's entire track history